sensor_id;sensor_type;location;lat;lon;timestamp;P1;durP1;ratioP1;P2;durP2;ratioP2
13388;SDS011;6764;53.250;10.410;2022-10-26T00:02:24;7.20;;;5.47;;
13388;SDS011;6764;53.250;10.410;2022-10-26T00:04:49;13.37;;;6.37;;
13388;SDS011;6764;53.250;10.410;2022-10-26T00:07:15;11.27;;;5.80;;
13388;SDS011;6764;53.250;10.410;2022-10-26T00:09:40;11.80;;;5.77;;
13388;SDS011;6764;53.250;10.410;2022-10-26T00:12:06;8.73;;;5.83;;
13388;SDS011;6764;53.250;10.410;2022-10-26T00:14:32;7.33;;;5.40;;
13388;SDS011;6764;53.250;10.410;2022-10-26T00:16:57;11.10;;;6.00;;
13388;SDS011;6764;53.250;10.410;2022-10-26T00:19:23;6.57;;;5.43;;
13388;SDS011;6764;53.250;10.410;2022-10-26T00:21:49;11.37;;;5.97;;
13388;SDS011;6764;53.250;10.410;2022-10-26T00:24:14;10.97;;;5.87;;
13388;SDS011;6764;53.250;10.410;2022-10-26T00:26:40;10.90;;;5.47;;
13388;SDS011;6764;53.250;10.410;2022-10-26T00:29:06;14.10;;;5.67;;
13388;SDS011;6764;53.250;10.410;2022-10-26T00:31:32;9.03;;;5.80;;
13388;SDS011;6764;53.250;10.410;2022-10-26T00:33:57;10.07;;;5.57;;
13388;SDS011;6764;53.250;10.410;2022-10-26T00:36:23;8.27;;;5.73;;
13388;SDS011;6764;53.250;10.410;2022-10-26T00:38:50;10.30;;;5.60;;
13388;SDS011;6764;53.250;10.410;2022-10-26T00:41:18;10.27;;;5.17;;
13388;SDS011;6764;53.250;10.410;2022-10-26T00:43:51;12.43;;;5.53;;
13388;SDS011;6764;53.250;10.410;2022-10-26T00:46:21;8.57;;;5.20;;
13388;SDS011;6764;53.250;10.410;2022-10-26T00:49:01;9.47;;;5.30;;
13388;SDS011;6764;53.250;10.410;2022-10-26T00:51:34;7.93;;;6.00;;
13388;SDS011;6764;53.250;10.410;2022-10-26T00:54:06;8.53;;;5.27;;
13388;SDS011;6764;53.250;10.410;2022-10-26T00:56:35;6.93;;;5.63;;
13388;SDS011;6764;53.250;10.410;2022-10-26T00:59:02;10.63;;;6.33;;
13388;SDS011;6764;53.250;10.410;2022-10-26T01:01:32;9.50;;;5.80;;
13388;SDS011;6764;53.250;10.410;2022-10-26T01:04:00;10.63;;;5.90;;
13388;SDS011;6764;53.250;10.410;2022-10-26T01:06:27;13.07;;;5.57;;
13388;SDS011;6764;53.250;10.410;2022-10-26T01:08:54;5.83;;;5.23;;
13388;SDS011;6764;53.250;10.410;2022-10-26T01:11:19;15.60;;;6.03;;
13388;SDS011;6764;53.250;10.410;2022-10-26T01:13:45;11.87;;;6.33;;
13388;SDS011;6764;53.250;10.410;2022-10-26T01:19:04;10.33;;;5.67;;
13388;SDS011;6764;53.250;10.410;2022-10-26T01:32:44;8.60;;;6.97;;
13388;SDS011;6764;53.250;10.410;2022-10-26T01:35:32;8.63;;;6.80;;
13388;SDS011;6764;53.250;10.410;2022-10-26T01:38:10;12.97;;;7.87;;
13388;SDS011;6764;53.250;10.410;2022-10-26T01:40:46;10.50;;;7.40;;
13388;SDS011;6764;53.250;10.410;2022-10-26T01:43:22;10.23;;;8.03;;
13388;SDS011;6764;53.250;10.410;2022-10-26T01:45:50;13.03;;;8.63;;
13388;SDS011;6764;53.250;10.410;2022-10-26T01:48:17;10.60;;;7.60;;
13388;SDS011;6764;53.250;10.410;2022-10-26T01:50:47;12.03;;;7.77;;
13388;SDS011;6764;53.250;10.410;2022-10-26T01:53:17;11.83;;;7.53;;
13388;SDS011;6764;53.250;10.410;2022-10-26T01:55:47;11.93;;;7.90;;
13388;SDS011;6764;53.250;10.410;2022-10-26T01:58:54;14.07;;;8.70;;
13388;SDS011;6764;53.250;10.410;2022-10-26T02:09:33;13.53;;;9.33;;
13388;SDS011;6764;53.250;10.410;2022-10-26T02:12:21;11.40;;;7.90;;
13388;SDS011;6764;53.250;10.410;2022-10-26T02:15:06;14.40;;;8.60;;
13388;SDS011;6764;53.250;10.410;2022-10-26T02:17:43;12.17;;;9.77;;
13388;SDS011;6764;53.250;10.410;2022-10-26T02:20:22;13.13;;;8.40;;
13388;SDS011;6764;53.250;10.410;2022-10-26T02:22:52;14.40;;;8.80;;
13388;SDS011;6764;53.250;10.410;2022-10-26T02:25:22;16.17;;;9.67;;
13388;SDS011;6764;53.250;10.410;2022-10-26T02:27:55;12.30;;;9.43;;
13388;SDS011;6764;53.250;10.410;2022-10-26T02:30:25;14.07;;;10.30;;
13388;SDS011;6764;53.250;10.410;2022-10-26T02:32:52;12.00;;;9.63;;
13388;SDS011;6764;53.250;10.410;2022-10-26T02:35:21;12.03;;;9.90;;
13388;SDS011;6764;53.250;10.410;2022-10-26T02:37:51;13.33;;;10.03;;
13388;SDS011;6764;53.250;10.410;2022-10-26T02:40:21;13.90;;;9.90;;
13388;SDS011;6764;53.250;10.410;2022-10-26T02:42:50;18.03;;;10.27;;
13388;SDS011;6764;53.250;10.410;2022-10-26T02:45:20;18.40;;;10.53;;
13388;SDS011;6764;53.250;10.410;2022-10-26T02:47:48;15.20;;;10.53;;
13388;SDS011;6764;53.250;10.410;2022-10-26T02:50:15;13.17;;;9.90;;
13388;SDS011;6764;53.250;10.410;2022-10-26T02:55:26;13.00;;;10.07;;
13388;SDS011;6764;53.250;10.410;2022-10-26T02:57:58;13.77;;;10.50;;
13388;SDS011;6764;53.250;10.410;2022-10-26T03:00:28;13.00;;;10.50;;
13388;SDS011;6764;53.250;10.410;2022-10-26T03:02:56;18.33;;;11.10;;
13388;SDS011;6764;53.250;10.410;2022-10-26T03:05:24;16.00;;;10.90;;
13388;SDS011;6764;53.250;10.410;2022-10-26T03:07:51;13.67;;;10.83;;
13388;SDS011;6764;53.250;10.410;2022-10-26T03:10:17;14.87;;;10.43;;
13388;SDS011;6764;53.250;10.410;2022-10-26T03:12:43;15.57;;;10.53;;
13388;SDS011;6764;53.250;10.410;2022-10-26T03:15:08;12.03;;;10.73;;
13388;SDS011;6764;53.250;10.410;2022-10-26T03:17:34;13.67;;;10.90;;
13388;SDS011;6764;53.250;10.410;2022-10-26T03:20:00;15.07;;;11.17;;
13388;SDS011;6764;53.250;10.410;2022-10-26T03:22:26;16.53;;;10.57;;
13388;SDS011;6764;53.250;10.410;2022-10-26T03:24:51;48.80;;;37.60;;
13388;SDS011;6764;53.250;10.410;2022-10-26T03:27:17;15.50;;;11.07;;
13388;SDS011;6764;53.250;10.410;2022-10-26T03:29:42;13.87;;;10.97;;
13388;SDS011;6764;53.250;10.410;2022-10-26T03:32:08;15.73;;;11.07;;
13388;SDS011;6764;53.250;10.410;2022-10-26T03:34:34;13.30;;;11.47;;
13388;SDS011;6764;53.250;10.410;2022-10-26T03:36:59;20.33;;;11.30;;
13388;SDS011;6764;53.250;10.410;2022-10-26T03:39:25;13.50;;;10.17;;
13388;SDS011;6764;53.250;10.410;2022-10-26T03:41:50;14.00;;;10.97;;
13388;SDS011;6764;53.250;10.410;2022-10-26T03:44:16;14.53;;;10.77;;
13388;SDS011;6764;53.250;10.410;2022-10-26T03:46:41;18.87;;;11.33;;
13388;SDS011;6764;53.250;10.410;2022-10-26T03:49:07;13.23;;;11.83;;
13388;SDS011;6764;53.250;10.410;2022-10-26T03:51:32;14.20;;;10.93;;
13388;SDS011;6764;53.250;10.410;2022-10-26T03:53:58;14.93;;;11.40;;
13388;SDS011;6764;53.250;10.410;2022-10-26T03:56:24;16.50;;;12.13;;
13388;SDS011;6764;53.250;10.410;2022-10-26T03:58:49;14.50;;;11.70;;
13388;SDS011;6764;53.250;10.410;2022-10-26T04:01:15;19.17;;;11.57;;
13388;SDS011;6764;53.250;10.410;2022-10-26T04:03:41;13.50;;;11.50;;
13388;SDS011;6764;53.250;10.410;2022-10-26T04:06:06;12.53;;;10.97;;
13388;SDS011;6764;53.250;10.410;2022-10-26T04:08:32;13.83;;;11.27;;
13388;SDS011;6764;53.250;10.410;2022-10-26T04:10:57;15.93;;;11.50;;
13388;SDS011;6764;53.250;10.410;2022-10-26T04:13:23;17.70;;;11.73;;
13388;SDS011;6764;53.250;10.410;2022-10-26T04:15:48;15.93;;;11.53;;
13388;SDS011;6764;53.250;10.410;2022-10-26T04:18:14;16.70;;;11.83;;
13388;SDS011;6764;53.250;10.410;2022-10-26T04:20:40;15.53;;;12.70;;
13388;SDS011;6764;53.250;10.410;2022-10-26T04:23:07;14.23;;;11.43;;
13388;SDS011;6764;53.250;10.410;2022-10-26T04:25:36;19.40;;;11.97;;
13388;SDS011;6764;53.250;10.410;2022-10-26T04:28:02;15.73;;;11.63;;
13388;SDS011;6764;53.250;10.410;2022-10-26T04:30:29;16.33;;;11.77;;
13388;SDS011;6764;53.250;10.410;2022-10-26T04:32:56;17.43;;;12.53;;
13388;SDS011;6764;53.250;10.410;2022-10-26T04:35:22;16.53;;;11.10;;
13388;SDS011;6764;53.250;10.410;2022-10-26T04:37:47;14.63;;;12.63;;
13388;SDS011;6764;53.250;10.410;2022-10-26T04:40:13;15.50;;;11.00;;
13388;SDS011;6764;53.250;10.410;2022-10-26T04:42:40;14.07;;;11.03;;
13388;SDS011;6764;53.250;10.410;2022-10-26T04:45:14;15.07;;;11.23;;
13388;SDS011;6764;53.250;10.410;2022-10-26T04:47:40;17.00;;;12.03;;
13388;SDS011;6764;53.250;10.410;2022-10-26T04:50:07;20.87;;;12.07;;
13388;SDS011;6764;53.250;10.410;2022-10-26T04:52:34;14.10;;;10.63;;
13388;SDS011;6764;53.250;10.410;2022-10-26T04:55:00;12.30;;;10.70;;
13388;SDS011;6764;53.250;10.410;2022-10-26T04:57:29;15.33;;;10.97;;
13388;SDS011;6764;53.250;10.410;2022-10-26T04:59:56;13.00;;;10.60;;
13388;SDS011;6764;53.250;10.410;2022-10-26T05:02:21;14.50;;;11.30;;
13388;SDS011;6764;53.250;10.410;2022-10-26T05:04:47;14.87;;;10.83;;
13388;SDS011;6764;53.250;10.410;2022-10-26T05:07:12;12.40;;;10.70;;
13388;SDS011;6764;53.250;10.410;2022-10-26T05:09:38;13.23;;;10.60;;
13388;SDS011;6764;53.250;10.410;2022-10-26T05:12:03;14.07;;;10.97;;
13388;SDS011;6764;53.250;10.410;2022-10-26T05:14:29;15.90;;;11.13;;
13388;SDS011;6764;53.250;10.410;2022-10-26T05:16:54;12.27;;;10.97;;
13388;SDS011;6764;53.250;10.410;2022-10-26T05:19:21;16.07;;;11.00;;
13388;SDS011;6764;53.250;10.410;2022-10-26T05:21:47;13.27;;;11.33;;
13388;SDS011;6764;53.250;10.410;2022-10-26T05:24:12;15.67;;;11.47;;
13388;SDS011;6764;53.250;10.410;2022-10-26T05:26:38;18.27;;;11.07;;
13388;SDS011;6764;53.250;10.410;2022-10-26T05:29:04;15.50;;;11.00;;
13388;SDS011;6764;53.250;10.410;2022-10-26T05:31:29;14.00;;;11.40;;
13388;SDS011;6764;53.250;10.410;2022-10-26T05:33:55;12.70;;;11.40;;
13388;SDS011;6764;53.250;10.410;2022-10-26T05:36:20;13.13;;;10.97;;
13388;SDS011;6764;53.250;10.410;2022-10-26T05:38:46;12.30;;;10.97;;
13388;SDS011;6764;53.250;10.410;2022-10-26T05:41:11;13.93;;;10.70;;
13388;SDS011;6764;53.250;10.410;2022-10-26T05:43:37;14.00;;;10.33;;
13388;SDS011;6764;53.250;10.410;2022-10-26T05:46:03;13.73;;;11.17;;
13388;SDS011;6764;53.250;10.410;2022-10-26T05:48:29;16.47;;;10.77;;
13388;SDS011;6764;53.250;10.410;2022-10-26T05:50:57;12.47;;;10.40;;
13388;SDS011;6764;53.250;10.410;2022-10-26T05:53:26;17.33;;;11.17;;
13388;SDS011;6764;53.250;10.410;2022-10-26T05:55:53;14.37;;;11.27;;
13388;SDS011;6764;53.250;10.410;2022-10-26T05:58:19;12.73;;;10.77;;
13388;SDS011;6764;53.250;10.410;2022-10-26T06:06:35;13.23;;;10.73;;
13388;SDS011;6764;53.250;10.410;2022-10-26T06:09:04;15.70;;;11.53;;
13388;SDS011;6764;53.250;10.410;2022-10-26T06:11:30;16.83;;;11.03;;
13388;SDS011;6764;53.250;10.410;2022-10-26T06:13:55;13.47;;;11.40;;
13388;SDS011;6764;53.250;10.410;2022-10-26T06:16:32;16.13;;;11.40;;
13388;SDS011;6764;53.250;10.410;2022-10-26T06:22:18;20.00;;;15.50;;
13388;SDS011;6764;53.250;10.410;2022-10-26T06:27:40;14.03;;;10.43;;
13388;SDS011;6764;53.250;10.410;2022-10-26T06:30:24;12.33;;;10.47;;
13388;SDS011;6764;53.250;10.410;2022-10-26T06:32:50;13.53;;;10.40;;
13388;SDS011;6764;53.250;10.410;2022-10-26T06:37:54;18.53;;;10.30;;
13388;SDS011;6764;53.250;10.410;2022-10-26T06:40:23;10.77;;;9.53;;
13388;SDS011;6764;53.250;10.410;2022-10-26T06:42:49;10.97;;;9.80;;
13388;SDS011;6764;53.250;10.410;2022-10-26T06:45:15;13.83;;;9.77;;
13388;SDS011;6764;53.250;10.410;2022-10-26T06:47:47;12.47;;;9.47;;
13388;SDS011;6764;53.250;10.410;2022-10-26T06:50:22;12.53;;;9.57;;
13388;SDS011;6764;53.250;10.410;2022-10-26T06:52:52;14.17;;;10.13;;
13388;SDS011;6764;53.250;10.410;2022-10-26T06:55:27;12.40;;;9.60;;
13388;SDS011;6764;53.250;10.410;2022-10-26T06:58:01;11.67;;;10.33;;
13388;SDS011;6764;53.250;10.410;2022-10-26T07:00:27;13.80;;;9.87;;
13388;SDS011;6764;53.250;10.410;2022-10-26T07:02:53;14.00;;;10.03;;
13388;SDS011;6764;53.250;10.410;2022-10-26T07:05:19;11.93;;;10.03;;
13388;SDS011;6764;53.250;10.410;2022-10-26T07:07:45;13.47;;;10.20;;
13388;SDS011;6764;53.250;10.410;2022-10-26T07:10:11;10.70;;;9.53;;
13388;SDS011;6764;53.250;10.410;2022-10-26T07:12:38;13.43;;;10.07;;
13388;SDS011;6764;53.250;10.410;2022-10-26T07:15:04;13.27;;;10.17;;
13388;SDS011;6764;53.250;10.410;2022-10-26T07:17:40;12.30;;;9.20;;
13388;SDS011;6764;53.250;10.410;2022-10-26T07:20:08;13.57;;;9.90;;
13388;SDS011;6764;53.250;10.410;2022-10-26T07:22:34;12.33;;;9.83;;
13388;SDS011;6764;53.250;10.410;2022-10-26T07:25:01;16.17;;;10.80;;
13388;SDS011;6764;53.250;10.410;2022-10-26T07:27:27;12.77;;;10.30;;
13388;SDS011;6764;53.250;10.410;2022-10-26T07:29:52;11.70;;;9.07;;
13388;SDS011;6764;53.250;10.410;2022-10-26T07:32:18;11.73;;;9.80;;
13388;SDS011;6764;53.250;10.410;2022-10-26T07:34:43;13.27;;;10.30;;
13388;SDS011;6764;53.250;10.410;2022-10-26T07:37:09;10.80;;;9.70;;
13388;SDS011;6764;53.250;10.410;2022-10-26T07:39:35;12.27;;;10.13;;
13388;SDS011;6764;53.250;10.410;2022-10-26T07:42:00;14.03;;;9.43;;
13388;SDS011;6764;53.250;10.410;2022-10-26T07:44:26;14.33;;;10.07;;
13388;SDS011;6764;53.250;10.410;2022-10-26T07:46:51;12.80;;;10.10;;
13388;SDS011;6764;53.250;10.410;2022-10-26T07:49:17;12.07;;;9.90;;
13388;SDS011;6764;53.250;10.410;2022-10-26T07:51:43;13.60;;;10.13;;
13388;SDS011;6764;53.250;10.410;2022-10-26T07:54:09;14.90;;;9.70;;
13388;SDS011;6764;53.250;10.410;2022-10-26T07:56:34;13.73;;;9.47;;
13388;SDS011;6764;53.250;10.410;2022-10-26T07:59:00;12.00;;;9.20;;
13388;SDS011;6764;53.250;10.410;2022-10-26T08:01:25;12.40;;;9.03;;
13388;SDS011;6764;53.250;10.410;2022-10-26T08:03:51;11.73;;;9.60;;
13388;SDS011;6764;53.250;10.410;2022-10-26T08:06:18;13.90;;;10.10;;
13388;SDS011;6764;53.250;10.410;2022-10-26T08:08:45;12.53;;;9.73;;
13388;SDS011;6764;53.250;10.410;2022-10-26T08:11:11;11.73;;;8.90;;
13388;SDS011;6764;53.250;10.410;2022-10-26T08:13:37;10.37;;;8.50;;
13388;SDS011;6764;53.250;10.410;2022-10-26T08:16:03;10.57;;;8.70;;
13388;SDS011;6764;53.250;10.410;2022-10-26T08:18:30;9.60;;;8.57;;
13388;SDS011;6764;53.250;10.410;2022-10-26T08:21:00;10.93;;;8.60;;
13388;SDS011;6764;53.250;10.410;2022-10-26T08:23:30;9.23;;;7.80;;
13388;SDS011;6764;53.250;10.410;2022-10-26T08:25:57;13.73;;;8.63;;
13388;SDS011;6764;53.250;10.410;2022-10-26T08:28:23;9.33;;;8.23;;
13388;SDS011;6764;53.250;10.410;2022-10-26T08:30:49;9.73;;;7.80;;
13388;SDS011;6764;53.250;10.410;2022-10-26T08:33:15;8.93;;;8.00;;
13388;SDS011;6764;53.250;10.410;2022-10-26T08:35:40;10.20;;;8.80;;
13388;SDS011;6764;53.250;10.410;2022-10-26T08:38:06;10.10;;;7.60;;
13388;SDS011;6764;53.250;10.410;2022-10-26T08:40:33;13.73;;;7.80;;
13388;SDS011;6764;53.250;10.410;2022-10-26T08:46:28;14.47;;;9.70;;
13388;SDS011;6764;53.250;10.410;2022-10-26T08:48:39;11.13;;;8.20;;
13388;SDS011;6764;53.250;10.410;2022-10-26T08:51:11;9.10;;;7.50;;
13388;SDS011;6764;53.250;10.410;2022-10-26T08:53:51;9.83;;;7.83;;
13388;SDS011;6764;53.250;10.410;2022-10-26T08:56:24;13.50;;;8.03;;
13388;SDS011;6764;53.250;10.410;2022-10-26T08:59:00;10.80;;;7.70;;
13388;SDS011;6764;53.250;10.410;2022-10-26T09:01:34;8.47;;;6.80;;
13388;SDS011;6764;53.250;10.410;2022-10-26T09:04:01;9.87;;;7.57;;
13388;SDS011;6764;53.250;10.410;2022-10-26T09:06:34;14.23;;;7.37;;
13388;SDS011;6764;53.250;10.410;2022-10-26T09:09:14;9.50;;;7.10;;
13388;SDS011;6764;53.250;10.410;2022-10-26T09:11:55;12.60;;;7.00;;
13388;SDS011;6764;53.250;10.410;2022-10-26T09:14:39;12.27;;;6.93;;
13388;SDS011;6764;53.250;10.410;2022-10-26T09:25:38;8.87;;;6.13;;
13388;SDS011;6764;53.250;10.410;2022-10-26T09:28:07;6.43;;;5.83;;
13388;SDS011;6764;53.250;10.410;2022-10-26T09:30:45;8.30;;;6.03;;
13388;SDS011;6764;53.250;10.410;2022-10-26T09:33:22;9.80;;;6.13;;
13388;SDS011;6764;53.250;10.410;2022-10-26T09:35:59;9.10;;;6.00;;
13388;SDS011;6764;53.250;10.410;2022-10-26T09:38:30;7.33;;;5.73;;
13388;SDS011;6764;53.250;10.410;2022-10-26T09:43:48;7.23;;;5.90;;
13388;SDS011;6764;53.250;10.410;2022-10-26T09:46:24;7.30;;;5.70;;
13388;SDS011;6764;53.250;10.410;2022-10-26T09:48:56;7.63;;;6.13;;
13388;SDS011;6764;53.250;10.410;2022-10-26T09:51:25;9.37;;;6.07;;
13388;SDS011;6764;53.250;10.410;2022-10-26T09:53:51;7.87;;;5.83;;
13388;SDS011;6764;53.250;10.410;2022-10-26T09:56:19;10.13;;;5.90;;
13388;SDS011;6764;53.250;10.410;2022-10-26T09:58:51;6.87;;;5.60;;
13388;SDS011;6764;53.250;10.410;2022-10-26T10:06:38;9.23;;;5.70;;
13388;SDS011;6764;53.250;10.410;2022-10-26T10:14:08;9.93;;;5.27;;
13388;SDS011;6764;53.250;10.410;2022-10-26T10:16:41;6.53;;;5.63;;
13388;SDS011;6764;53.250;10.410;2022-10-26T10:19:27;7.07;;;4.80;;
13388;SDS011;6764;53.250;10.410;2022-10-26T10:21:58;6.30;;;4.60;;
13388;SDS011;6764;53.250;10.410;2022-10-26T10:24:29;10.40;;;5.10;;
13388;SDS011;6764;53.250;10.410;2022-10-26T10:29:28;11.83;;;5.63;;
13388;SDS011;6764;53.250;10.410;2022-10-26T10:31:59;8.18;;;5.93;;
13388;SDS011;6764;53.250;10.410;2022-10-26T10:34:28;8.37;;;5.00;;
13388;SDS011;6764;53.250;10.410;2022-10-26T10:36:55;7.67;;;4.90;;
13388;SDS011;6764;53.250;10.410;2022-10-26T10:39:27;6.20;;;4.50;;
13388;SDS011;6764;53.250;10.410;2022-10-26T10:41:56;5.60;;;3.83;;
13388;SDS011;6764;53.250;10.410;2022-10-26T10:44:23;6.70;;;4.17;;
13388;SDS011;6764;53.250;10.410;2022-10-26T10:47:03;9.35;;;4.53;;
13388;SDS011;6764;53.250;10.410;2022-10-26T10:49:30;5.60;;;4.30;;
13388;SDS011;6764;53.250;10.410;2022-10-26T10:51:57;7.67;;;4.50;;
13388;SDS011;6764;53.250;10.410;2022-10-26T11:00:03;5.47;;;3.97;;
13388;SDS011;6764;53.250;10.410;2022-10-26T11:08:02;7.50;;;4.80;;
13388;SDS011;6764;53.250;10.410;2022-10-26T11:10:35;9.27;;;4.28;;
13388;SDS011;6764;53.250;10.410;2022-10-26T11:13:36;6.20;;;3.67;;
13388;SDS011;6764;53.250;10.410;2022-10-26T11:17:01;4.82;;;4.15;;
13388;SDS011;6764;53.250;10.410;2022-10-26T11:19:19;7.40;;;4.15;;
13388;SDS011;6764;53.250;10.410;2022-10-26T11:22:09;8.93;;;4.65;;
13388;SDS011;6764;53.250;10.410;2022-10-26T11:24:46;10.70;;;4.35;;
13388;SDS011;6764;53.250;10.410;2022-10-26T11:27:24;6.13;;;4.03;;
13388;SDS011;6764;53.250;10.410;2022-10-26T11:33:04;7.90;;;4.20;;
13388;SDS011;6764;53.250;10.410;2022-10-26T11:41:18;6.00;;;3.55;;
13388;SDS011;6764;53.250;10.410;2022-10-26T11:43:52;7.10;;;3.35;;
13388;SDS011;6764;53.250;10.410;2022-10-26T11:46:31;8.13;;;3.28;;
13388;SDS011;6764;53.250;10.410;2022-10-26T11:49:10;11.00;;;4.07;;
13388;SDS011;6764;53.250;10.410;2022-10-26T11:54:57;5.47;;;3.30;;
13388;SDS011;6764;53.250;10.410;2022-10-26T11:57:28;4.70;;;2.88;;
13388;SDS011;6764;53.250;10.410;2022-10-26T11:59:58;6.90;;;2.45;;
13388;SDS011;6764;53.250;10.410;2022-10-26T12:02:30;6.55;;;2.85;;
13388;SDS011;6764;53.250;10.410;2022-10-26T12:07:30;6.03;;;3.17;;
13388;SDS011;6764;53.250;10.410;2022-10-26T12:09:59;4.05;;;2.40;;
13388;SDS011;6764;53.250;10.410;2022-10-26T12:12:31;3.25;;;2.35;;
13388;SDS011;6764;53.250;10.410;2022-10-26T12:15:08;5.20;;;2.50;;
13388;SDS011;6764;53.250;10.410;2022-10-26T12:23:26;4.15;;;2.47;;
13388;SDS011;6764;53.250;10.410;2022-10-26T12:28:47;5.57;;;2.92;;
13388;SDS011;6764;53.250;10.410;2022-10-26T12:34:04;5.68;;;3.15;;
13388;SDS011;6764;53.250;10.410;2022-10-26T12:39:34;4.95;;;2.60;;
13388;SDS011;6764;53.250;10.410;2022-10-26T12:44:36;5.07;;;2.80;;
13388;SDS011;6764;53.250;10.410;2022-10-26T12:47:05;4.82;;;2.30;;
13388;SDS011;6764;53.250;10.410;2022-10-26T12:52:25;4.70;;;2.50;;
13388;SDS011;6764;53.250;10.410;2022-10-26T12:55:01;4.35;;;2.70;;
13388;SDS011;6764;53.250;10.410;2022-10-26T12:57:34;3.38;;;2.50;;
13388;SDS011;6764;53.250;10.410;2022-10-26T13:00:34;3.47;;;2.35;;
13388;SDS011;6764;53.250;10.410;2022-10-26T13:03:25;4.70;;;2.08;;
13388;SDS011;6764;53.250;10.410;2022-10-26T13:08:51;5.15;;;2.22;;
13388;SDS011;6764;53.250;10.410;2022-10-26T13:11:22;4.32;;;2.20;;
13388;SDS011;6764;53.250;10.410;2022-10-26T13:14:03;2.72;;;2.28;;
13388;SDS011;6764;53.250;10.410;2022-10-26T13:16:31;6.90;;;2.45;;
13388;SDS011;6764;53.250;10.410;2022-10-26T13:18:58;6.90;;;3.05;;
13388;SDS011;6764;53.250;10.410;2022-10-26T13:21:24;5.82;;;2.10;;
13388;SDS011;6764;53.250;10.410;2022-10-26T13:26:22;7.38;;;2.38;;
13388;SDS011;6764;53.250;10.410;2022-10-26T13:34:02;4.70;;;2.17;;
13388;SDS011;6764;53.250;10.410;2022-10-26T13:36:33;4.53;;;2.13;;
13388;SDS011;6764;53.250;10.410;2022-10-26T13:39:28;4.25;;;2.10;;
13388;SDS011;6764;53.250;10.410;2022-10-26T13:41:59;8.05;;;2.63;;
13388;SDS011;6764;53.250;10.410;2022-10-26T13:44:34;5.50;;;2.72;;
13388;SDS011;6764;53.250;10.410;2022-10-26T13:47:03;3.45;;;2.67;;
13388;SDS011;6764;53.250;10.410;2022-10-26T13:49:34;5.53;;;2.85;;
13388;SDS011;6764;53.250;10.410;2022-10-26T13:52:04;9.38;;;2.53;;
13388;SDS011;6764;53.250;10.410;2022-10-26T13:54:38;4.90;;;2.75;;
13388;SDS011;6764;53.250;10.410;2022-10-26T13:57:12;12.82;;;11.10;;
13388;SDS011;6764;53.250;10.410;2022-10-26T13:59:47;5.53;;;2.60;;
13388;SDS011;6764;53.250;10.410;2022-10-26T14:02:16;8.02;;;2.55;;
13388;SDS011;6764;53.250;10.410;2022-10-26T14:04:58;4.53;;;2.90;;
13388;SDS011;6764;53.250;10.410;2022-10-26T14:07:30;3.35;;;2.50;;
13388;SDS011;6764;53.250;10.410;2022-10-26T14:10:02;8.63;;;3.53;;
13388;SDS011;6764;53.250;10.410;2022-10-26T14:12:28;8.80;;;2.85;;
13388;SDS011;6764;53.250;10.410;2022-10-26T14:15:28;4.50;;;2.35;;
13388;SDS011;6764;53.250;10.410;2022-10-26T14:17:54;7.55;;;2.78;;
13388;SDS011;6764;53.250;10.410;2022-10-26T14:20:22;4.57;;;2.63;;
13388;SDS011;6764;53.250;10.410;2022-10-26T14:22:49;8.50;;;3.03;;
13388;SDS011;6764;53.250;10.410;2022-10-26T14:25:25;7.32;;;2.65;;
13388;SDS011;6764;53.250;10.410;2022-10-26T14:27:53;6.22;;;2.50;;
13388;SDS011;6764;53.250;10.410;2022-10-26T14:30:23;8.60;;;2.80;;
13388;SDS011;6764;53.250;10.410;2022-10-26T14:32:54;4.93;;;2.85;;
13388;SDS011;6764;53.250;10.410;2022-10-26T14:35:21;7.82;;;2.72;;
13388;SDS011;6764;53.250;10.410;2022-10-26T14:37:52;9.32;;;3.10;;
13388;SDS011;6764;53.250;10.410;2022-10-26T14:40:20;6.82;;;3.03;;
13388;SDS011;6764;53.250;10.410;2022-10-26T14:42:58;5.68;;;3.47;;
13388;SDS011;6764;53.250;10.410;2022-10-26T14:45:33;8.73;;;3.03;;
13388;SDS011;6764;53.250;10.410;2022-10-26T14:48:00;5.00;;;3.00;;
13388;SDS011;6764;53.250;10.410;2022-10-26T14:50:28;7.93;;;2.85;;
13388;SDS011;6764;53.250;10.410;2022-10-26T14:55:27;8.25;;;2.55;;
13388;SDS011;6764;53.250;10.410;2022-10-26T14:58:04;6.22;;;2.78;;
13388;SDS011;6764;53.250;10.410;2022-10-26T15:00:32;5.03;;;2.83;;
13388;SDS011;6764;53.250;10.410;2022-10-26T15:02:58;6.35;;;3.08;;
13388;SDS011;6764;53.250;10.410;2022-10-26T15:05:30;6.28;;;3.00;;
13388;SDS011;6764;53.250;10.410;2022-10-26T15:07:58;9.82;;;3.63;;
13388;SDS011;6764;53.250;10.410;2022-10-26T15:13:23;6.18;;;3.55;;
13388;SDS011;6764;53.250;10.410;2022-10-26T15:15:53;9.85;;;3.30;;
13388;SDS011;6764;53.250;10.410;2022-10-26T15:18:40;5.43;;;2.92;;
13388;SDS011;6764;53.250;10.410;2022-10-26T15:21:17;5.55;;;2.90;;
13388;SDS011;6764;53.250;10.410;2022-10-26T15:23:45;6.18;;;2.85;;
13388;SDS011;6764;53.250;10.410;2022-10-26T15:26:10;5.25;;;2.97;;
13388;SDS011;6764;53.250;10.410;2022-10-26T15:33:34;8.88;;;2.95;;
13388;SDS011;6764;53.250;10.410;2022-10-26T15:36:23;9.23;;;3.05;;
13388;SDS011;6764;53.250;10.410;2022-10-26T15:38:49;6.70;;;2.80;;
13388;SDS011;6764;53.250;10.410;2022-10-26T15:41:22;7.45;;;2.80;;
13388;SDS011;6764;53.250;10.410;2022-10-26T15:43:54;8.10;;;2.90;;
13388;SDS011;6764;53.250;10.410;2022-10-26T15:46:22;6.63;;;2.67;;
13388;SDS011;6764;53.250;10.410;2022-10-26T15:48:53;7.38;;;3.22;;
13388;SDS011;6764;53.250;10.410;2022-10-26T15:51:20;4.38;;;3.05;;
13388;SDS011;6764;53.250;10.410;2022-10-26T15:53:46;9.70;;;3.35;;
13388;SDS011;6764;53.250;10.410;2022-10-26T15:56:19;3.95;;;3.08;;
13388;SDS011;6764;53.250;10.410;2022-10-26T15:58:47;9.90;;;3.30;;
13388;SDS011;6764;53.250;10.410;2022-10-26T16:01:14;5.60;;;3.63;;
13388;SDS011;6764;53.250;10.410;2022-10-26T16:03:41;10.18;;;4.32;;
13388;SDS011;6764;53.250;10.410;2022-10-26T16:06:08;7.15;;;4.10;;
13388;SDS011;6764;53.250;10.410;2022-10-26T16:08:50;8.80;;;4.10;;
13388;SDS011;6764;53.250;10.410;2022-10-26T16:11:17;8.43;;;4.20;;
13388;SDS011;6764;53.250;10.410;2022-10-26T16:13:43;6.15;;;4.20;;
13388;SDS011;6764;53.250;10.410;2022-10-26T16:16:12;7.05;;;3.90;;
13388;SDS011;6764;53.250;10.410;2022-10-26T16:18:39;10.73;;;4.50;;
13388;SDS011;6764;53.250;10.410;2022-10-26T16:21:05;7.10;;;4.00;;
13388;SDS011;6764;53.250;10.410;2022-10-26T16:23:35;7.47;;;4.43;;
13388;SDS011;6764;53.250;10.410;2022-10-26T16:26:00;8.82;;;4.22;;
13388;SDS011;6764;53.250;10.410;2022-10-26T16:28:28;9.18;;;4.85;;
13388;SDS011;6764;53.250;10.410;2022-10-26T16:30:57;9.25;;;4.13;;
13388;SDS011;6764;53.250;10.410;2022-10-26T16:33:27;9.18;;;3.20;;
13388;SDS011;6764;53.250;10.410;2022-10-26T16:35:59;6.00;;;3.80;;
13388;SDS011;6764;53.250;10.410;2022-10-26T16:38:25;8.20;;;3.90;;
13388;SDS011;6764;53.250;10.410;2022-10-26T16:41:08;11.30;;;5.93;;
13388;SDS011;6764;53.250;10.410;2022-10-26T16:43:36;9.07;;;4.68;;
13388;SDS011;6764;53.250;10.410;2022-10-26T16:46:04;6.63;;;3.83;;
13388;SDS011;6764;53.250;10.410;2022-10-26T16:48:33;7.15;;;3.78;;
13388;SDS011;6764;53.250;10.410;2022-10-26T16:51:03;12.40;;;4.10;;
13388;SDS011;6764;53.250;10.410;2022-10-26T16:53:39;9.20;;;3.90;;
13388;SDS011;6764;53.250;10.410;2022-10-26T16:56:06;8.48;;;4.40;;
13388;SDS011;6764;53.250;10.410;2022-10-26T16:58:37;7.93;;;3.83;;
13388;SDS011;6764;53.250;10.410;2022-10-26T17:01:04;7.82;;;3.78;;
13388;SDS011;6764;53.250;10.410;2022-10-26T17:03:30;7.57;;;3.97;;
13388;SDS011;6764;53.250;10.410;2022-10-26T17:06:00;5.63;;;3.97;;